sensor_id;sensor_type;location;lat;lon;timestamp;P1;durP1;ratioP1;P2;durP2;ratioP2
76689;SDS011;65623;44.498;0.166;2023-05-10T00:01:01;14.50;;;3.10;;
76689;SDS011;65623;44.498;0.166;2023-05-10T00:06:34;12.90;;;2.77;;
76689;SDS011;65623;44.498;0.166;2023-05-10T00:12:07;16.97;;;2.93;;
76689;SDS011;65623;44.498;0.166;2023-05-10T00:17:40;20.53;;;4.40;;
76689;SDS011;65623;44.498;0.166;2023-05-10T00:23:12;26.90;;;4.40;;
76689;SDS011;65623;44.498;0.166;2023-05-10T00:28:45;17.67;;;3.93;;
76689;SDS011;65623;44.498;0.166;2023-05-10T00:34:18;24.80;;;4.93;;
76689;SDS011;65623;44.498;0.166;2023-05-10T00:39:50;31.67;;;5.00;;
76689;SDS011;65623;44.498;0.166;2023-05-10T00:45:23;25.47;;;3.80;;
76689;SDS011;65623;44.498;0.166;2023-05-10T00:50:57;24.57;;;3.93;;
76689;SDS011;65623;44.498;0.166;2023-05-10T00:56:30;31.57;;;6.23;;
76689;SDS011;65623;44.498;0.166;2023-05-10T01:02:03;35.73;;;4.27;;
76689;SDS011;65623;44.498;0.166;2023-05-10T01:07:36;31.53;;;5.37;;
76689;SDS011;65623;44.498;0.166;2023-05-10T01:13:09;31.27;;;5.47;;
76689;SDS011;65623;44.498;0.166;2023-05-10T01:18:42;24.33;;;5.63;;
76689;SDS011;65623;44.498;0.166;2023-05-10T01:24:21;32.23;;;4.33;;
76689;SDS011;65623;44.498;0.166;2023-05-10T01:35:23;18.37;;;5.70;;
76689;SDS011;65623;44.498;0.166;2023-05-10T01:40:55;19.00;;;4.07;;
76689;SDS011;65623;44.498;0.166;2023-05-10T01:46:28;32.70;;;4.83;;
76689;SDS011;65623;44.498;0.166;2023-05-10T01:52:01;35.83;;;5.30;;
76689;SDS011;65623;44.498;0.166;2023-05-10T01:57:33;30.07;;;5.40;;
76689;SDS011;65623;44.498;0.166;2023-05-10T02:03:06;34.60;;;4.40;;
76689;SDS011;65623;44.498;0.166;2023-05-10T02:08:38;29.30;;;4.33;;
76689;SDS011;65623;44.498;0.166;2023-05-10T02:14:10;31.80;;;5.73;;
76689;SDS011;65623;44.498;0.166;2023-05-10T02:19:42;23.93;;;4.23;;
76689;SDS011;65623;44.498;0.166;2023-05-10T02:25:14;30.67;;;4.90;;
76689;SDS011;65623;44.498;0.166;2023-05-10T02:30:47;26.40;;;5.37;;
76689;SDS011;65623;44.498;0.166;2023-05-10T02:36:21;32.80;;;5.07;;
76689;SDS011;65623;44.498;0.166;2023-05-10T02:41:55;25.73;;;5.43;;
76689;SDS011;65623;44.498;0.166;2023-05-10T02:47:28;20.33;;;3.97;;
76689;SDS011;65623;44.498;0.166;2023-05-10T02:53:01;32.53;;;4.83;;
76689;SDS011;65623;44.498;0.166;2023-05-10T02:58:33;26.20;;;4.53;;
76689;SDS011;65623;44.498;0.166;2023-05-10T03:04:06;27.77;;;4.47;;
76689;SDS011;65623;44.498;0.166;2023-05-10T03:09:40;25.13;;;4.47;;
76689;SDS011;65623;44.498;0.166;2023-05-10T03:15:22;15.10;;;3.93;;
76689;SDS011;65623;44.498;0.166;2023-05-10T03:20:47;26.03;;;4.30;;
76689;SDS011;65623;44.498;0.166;2023-05-10T03:26:20;18.53;;;5.50;;
76689;SDS011;65623;44.498;0.166;2023-05-10T03:31:51;34.60;;;4.77;;
76689;SDS011;65623;44.498;0.166;2023-05-10T03:37:24;20.13;;;4.83;;
76689;SDS011;65623;44.498;0.166;2023-05-10T03:42:58;23.67;;;5.70;;
76689;SDS011;65623;44.498;0.166;2023-05-10T03:48:32;21.07;;;5.37;;
76689;SDS011;65623;44.498;0.166;2023-05-10T03:54:04;17.60;;;4.27;;
76689;SDS011;65623;44.498;0.166;2023-05-10T03:59:37;23.70;;;5.60;;
76689;SDS011;65623;44.498;0.166;2023-05-10T04:05:11;18.73;;;4.57;;
76689;SDS011;65623;44.498;0.166;2023-05-10T04:10:43;32.80;;;5.03;;
76689;SDS011;65623;44.498;0.166;2023-05-10T04:16:16;27.53;;;5.43;;
76689;SDS011;65623;44.498;0.166;2023-05-10T04:21:49;21.27;;;3.73;;
76689;SDS011;65623;44.498;0.166;2023-05-10T04:27:23;18.40;;;4.67;;
76689;SDS011;65623;44.498;0.166;2023-05-10T04:32:56;22.87;;;5.80;;
76689;SDS011;65623;44.498;0.166;2023-05-10T04:38:29;23.70;;;4.70;;
76689;SDS011;65623;44.498;0.166;2023-05-10T04:44:01;22.20;;;4.13;;
76689;SDS011;65623;44.498;0.166;2023-05-10T04:49:34;14.77;;;5.23;;
76689;SDS011;65623;44.498;0.166;2023-05-10T04:55:06;20.27;;;5.00;;
76689;SDS011;65623;44.498;0.166;2023-05-10T05:00:39;16.87;;;4.00;;
76689;SDS011;65623;44.498;0.166;2023-05-10T05:06:12;20.70;;;5.37;;
76689;SDS011;65623;44.498;0.166;2023-05-10T05:11:44;21.77;;;5.27;;
76689;SDS011;65623;44.498;0.166;2023-05-10T05:17:17;24.60;;;4.23;;
76689;SDS011;65623;44.498;0.166;2023-05-10T05:22:50;16.37;;;4.43;;
76689;SDS011;65623;44.498;0.166;2023-05-10T05:28:23;16.90;;;4.23;;
76689;SDS011;65623;44.498;0.166;2023-05-10T05:33:55;21.30;;;4.50;;
76689;SDS011;65623;44.498;0.166;2023-05-10T05:39:28;18.10;;;4.67;;
76689;SDS011;65623;44.498;0.166;2023-05-10T05:45:02;13.93;;;4.23;;
76689;SDS011;65623;44.498;0.166;2023-05-10T05:50:35;16.27;;;3.60;;
76689;SDS011;65623;44.498;0.166;2023-05-10T05:56:08;13.43;;;3.07;;
76689;SDS011;65623;44.498;0.166;2023-05-10T06:01:41;19.43;;;4.70;;
76689;SDS011;65623;44.498;0.166;2023-05-10T06:07:13;15.20;;;4.07;;
76689;SDS011;65623;44.498;0.166;2023-05-10T06:12:46;16.83;;;3.20;;
76689;SDS011;65623;44.498;0.166;2023-05-10T06:18:20;17.80;;;2.70;;
76689;SDS011;65623;44.498;0.166;2023-05-10T06:23:54;18.77;;;4.20;;
76689;SDS011;65623;44.498;0.166;2023-05-10T06:29:28;13.43;;;2.30;;
76689;SDS011;65623;44.498;0.166;2023-05-10T06:35:01;16.93;;;4.50;;
76689;SDS011;65623;44.498;0.166;2023-05-10T06:40:34;15.57;;;3.63;;
76689;SDS011;65623;44.498;0.166;2023-05-10T06:46:07;17.97;;;4.57;;
76689;SDS011;65623;44.498;0.166;2023-05-10T06:51:39;23.60;;;2.40;;
76689;SDS011;65623;44.498;0.166;2023-05-10T06:57:11;10.70;;;3.07;;
76689;SDS011;65623;44.498;0.166;2023-05-10T07:02:44;15.93;;;2.50;;
76689;SDS011;65623;44.498;0.166;2023-05-10T07:08:18;6.87;;;1.80;;
76689;SDS011;65623;44.498;0.166;2023-05-10T07:13:50;15.73;;;2.23;;
76689;SDS011;65623;44.498;0.166;2023-05-10T07:19:23;17.90;;;2.30;;
76689;SDS011;65623;44.498;0.166;2023-05-10T07:24:56;8.83;;;2.40;;
76689;SDS011;65623;44.498;0.166;2023-05-10T07:30:30;7.10;;;1.60;;
76689;SDS011;65623;44.498;0.166;2023-05-10T07:36:02;14.33;;;3.23;;
76689;SDS011;65623;44.498;0.166;2023-05-10T07:41:36;15.17;;;2.93;;
76689;SDS011;65623;44.498;0.166;2023-05-10T07:47:09;10.37;;;1.70;;
76689;SDS011;65623;44.498;0.166;2023-05-10T07:52:42;16.87;;;2.43;;
76689;SDS011;65623;44.498;0.166;2023-05-10T07:58:14;14.23;;;2.33;;
76689;SDS011;65623;44.498;0.166;2023-05-10T08:03:47;8.83;;;2.33;;
76689;SDS011;65623;44.498;0.166;2023-05-10T08:09:19;13.83;;;2.03;;
76689;SDS011;65623;44.498;0.166;2023-05-10T08:14:51;10.90;;;2.33;;
76689;SDS011;65623;44.498;0.166;2023-05-10T08:20:24;4.70;;;1.43;;
76689;SDS011;65623;44.498;0.166;2023-05-10T08:25:58;9.13;;;2.17;;
76689;SDS011;65623;44.498;0.166;2023-05-10T08:31:30;9.13;;;1.60;;
76689;SDS011;65623;44.498;0.166;2023-05-10T08:37:04;13.27;;;2.03;;
76689;SDS011;65623;44.498;0.166;2023-05-10T08:42:36;3.97;;;1.50;;
76689;SDS011;65623;44.498;0.166;2023-05-10T08:48:10;7.23;;;1.83;;
76689;SDS011;65623;44.498;0.166;2023-05-10T08:53:41;11.73;;;1.40;;
76689;SDS011;65623;44.498;0.166;2023-05-10T08:59:13;3.77;;;1.10;;
76689;SDS011;65623;44.498;0.166;2023-05-10T09:04:46;7.47;;;1.20;;
76689;SDS011;65623;44.498;0.166;2023-05-10T09:10:19;5.63;;;1.33;;
76689;SDS011;65623;44.498;0.166;2023-05-10T09:15:51;5.27;;;1.60;;
76689;SDS011;65623;44.498;0.166;2023-05-10T09:21:25;5.63;;;1.37;;
76689;SDS011;65623;44.498;0.166;2023-05-10T09:26:58;4.57;;;2.00;;
76689;SDS011;65623;44.498;0.166;2023-05-10T09:32:39;7.33;;;1.50;;
76689;SDS011;65623;44.498;0.166;2023-05-10T09:38:04;10.77;;;1.83;;
76689;SDS011;65623;44.498;0.166;2023-05-10T09:43:37;11.67;;;2.00;;
76689;SDS011;65623;44.498;0.166;2023-05-10T09:49:11;8.20;;;1.37;;
76689;SDS011;65623;44.498;0.166;2023-05-10T09:54:45;8.70;;;1.93;;
76689;SDS011;65623;44.498;0.166;2023-05-10T10:00:18;10.40;;;1.53;;
76689;SDS011;65623;44.498;0.166;2023-05-10T10:05:50;12.93;;;1.70;;
76689;SDS011;65623;44.498;0.166;2023-05-10T10:11:23;10.90;;;1.60;;
76689;SDS011;65623;44.498;0.166;2023-05-10T10:16:56;4.00;;;1.40;;
76689;SDS011;65623;44.498;0.166;2023-05-10T10:22:29;4.80;;;1.33;;
76689;SDS011;65623;44.498;0.166;2023-05-10T10:28:07;7.87;;;1.37;;
76689;SDS011;65623;44.498;0.166;2023-05-10T10:33:39;5.73;;;0.97;;
76689;SDS011;65623;44.498;0.166;2023-05-10T10:39:08;2.77;;;0.67;;
76689;SDS011;65623;44.498;0.166;2023-05-10T10:44:39;7.53;;;1.20;;
76689;SDS011;65623;44.498;0.166;2023-05-10T10:50:12;6.43;;;0.80;;
76689;SDS011;65623;44.498;0.166;2023-05-10T10:55:45;3.13;;;0.90;;
76689;SDS011;65623;44.498;0.166;2023-05-10T11:01:19;3.03;;;1.00;;
76689;SDS011;65623;44.498;0.166;2023-05-10T11:06:51;5.80;;;1.50;;
76689;SDS011;65623;44.498;0.166;2023-05-10T11:12:24;5.83;;;1.30;;
76689;SDS011;65623;44.498;0.166;2023-05-10T11:17:57;3.03;;;1.00;;
76689;SDS011;65623;44.498;0.166;2023-05-10T11:23:30;4.77;;;1.00;;
76689;SDS011;65623;44.498;0.166;2023-05-10T11:29:03;10.07;;;1.00;;
76689;SDS011;65623;44.498;0.166;2023-05-10T11:34:35;4.97;;;1.53;;
76689;SDS011;65623;44.498;0.166;2023-05-10T11:40:09;5.13;;;1.10;;
76689;SDS011;65623;44.498;0.166;2023-05-10T11:45:42;2.70;;;1.30;;
76689;SDS011;65623;44.498;0.166;2023-05-10T11:51:19;9.13;;;2.50;;
76689;SDS011;65623;44.498;0.166;2023-05-10T11:56:48;2.63;;;0.93;;
76689;SDS011;65623;44.498;0.166;2023-05-10T12:02:21;4.13;;;1.17;;
76689;SDS011;65623;44.498;0.166;2023-05-10T12:13:27;3.07;;;0.83;;
76689;SDS011;65623;44.498;0.166;2023-05-10T12:19:00;10.07;;;1.27;;
76689;SDS011;65623;44.498;0.166;2023-05-10T12:24:33;4.60;;;1.07;;
76689;SDS011;65623;44.498;0.166;2023-05-10T12:30:06;10.17;;;1.10;;
76689;SDS011;65623;44.498;0.166;2023-05-10T12:35:47;1.70;;;0.90;;
76689;SDS011;65623;44.498;0.166;2023-05-10T12:41:13;2.57;;;0.60;;
76689;SDS011;65623;44.498;0.166;2023-05-10T12:46:45;1.33;;;0.80;;
76689;SDS011;65623;44.498;0.166;2023-05-10T12:52:17;4.63;;;0.97;;
76689;SDS011;65623;44.498;0.166;2023-05-10T12:57:49;1.90;;;0.60;;
76689;SDS011;65623;44.498;0.166;2023-05-10T13:03:22;1.90;;;0.63;;
76689;SDS011;65623;44.498;0.166;2023-05-10T13:08:54;3.13;;;1.03;;
76689;SDS011;65623;44.498;0.166;2023-05-10T13:14:26;4.80;;;0.70;;
76689;SDS011;65623;44.498;0.166;2023-05-10T13:19:59;3.93;;;0.50;;
76689;SDS011;65623;44.498;0.166;2023-05-10T13:25:32;1.93;;;0.50;;
76689;SDS011;65623;44.498;0.166;2023-05-10T13:31:07;3.27;;;1.13;;
76689;SDS011;65623;44.498;0.166;2023-05-10T13:36:40;5.37;;;0.70;;
76689;SDS011;65623;44.498;0.166;2023-05-10T13:42:13;2.53;;;0.60;;
76689;SDS011;65623;44.498;0.166;2023-05-10T13:47:45;3.13;;;0.60;;
76689;SDS011;65623;44.498;0.166;2023-05-10T13:53:17;4.87;;;1.23;;
76689;SDS011;65623;44.498;0.166;2023-05-10T13:58:51;4.03;;;1.07;;
76689;SDS011;65623;44.498;0.166;2023-05-10T14:04:22;2.53;;;0.60;;
76689;SDS011;65623;44.498;0.166;2023-05-10T14:09:55;3.30;;;1.30;;
76689;SDS011;65623;44.498;0.166;2023-05-10T14:15:27;3.67;;;1.07;;
76689;SDS011;65623;44.498;0.166;2023-05-10T14:21:01;3.27;;;1.67;;
76689;SDS011;65623;44.498;0.166;2023-05-10T14:26:34;1.37;;;0.70;;
76689;SDS011;65623;44.498;0.166;2023-05-10T14:32:06;3.63;;;1.27;;
76689;SDS011;65623;44.498;0.166;2023-05-10T14:37:40;4.70;;;0.80;;
76689;SDS011;65623;44.498;0.166;2023-05-10T14:43:14;7.37;;;0.70;;
76689;SDS011;65623;44.498;0.166;2023-05-10T14:48:47;3.43;;;0.70;;
76689;SDS011;65623;44.498;0.166;2023-05-10T14:54:18;4.00;;;0.80;;
76689;SDS011;65623;44.498;0.166;2023-05-10T14:59:52;1.80;;;0.60;;
76689;SDS011;65623;44.498;0.166;2023-05-10T15:05:24;1.57;;;0.80;;
76689;SDS011;65623;44.498;0.166;2023-05-10T15:10:58;4.67;;;0.93;;
76689;SDS011;65623;44.498;0.166;2023-05-10T15:16:31;3.83;;;0.87;;
76689;SDS011;65623;44.498;0.166;2023-05-10T15:22:05;5.90;;;1.17;;
76689;SDS011;65623;44.498;0.166;2023-05-10T15:27:38;13.67;;;1.60;;
76689;SDS011;65623;44.498;0.166;2023-05-10T15:33:11;6.70;;;1.10;;
76689;SDS011;65623;44.498;0.166;2023-05-10T15:38:44;4.67;;;1.03;;
76689;SDS011;65623;44.498;0.166;2023-05-10T15:44:16;4.80;;;1.10;;
76689;SDS011;65623;44.498;0.166;2023-05-10T15:49:49;4.23;;;1.00;;
76689;SDS011;65623;44.498;0.166;2023-05-10T15:55:22;4.90;;;1.00;;
76689;SDS011;65623;44.498;0.166;2023-05-10T16:00:54;3.97;;;0.57;;
76689;SDS011;65623;44.498;0.166;2023-05-10T16:06:26;4.80;;;1.03;;
76689;SDS011;65623;44.498;0.166;2023-05-10T16:11:59;2.70;;;0.93;;
76689;SDS011;65623;44.498;0.166;2023-05-10T16:17:31;4.43;;;1.03;;
76689;SDS011;65623;44.498;0.166;2023-05-10T16:23:03;6.27;;;1.23;;
76689;SDS011;65623;44.498;0.166;2023-05-10T16:28:35;8.00;;;1.93;;
76689;SDS011;65623;44.498;0.166;2023-05-10T16:34:08;7.60;;;1.30;;
76689;SDS011;65623;44.498;0.166;2023-05-10T16:39:42;7.97;;;2.03;;
76689;SDS011;65623;44.498;0.166;2023-05-10T16:45:16;6.00;;;0.97;;
76689;SDS011;65623;44.498;0.166;2023-05-10T16:50:49;4.23;;;1.13;;
76689;SDS011;65623;44.498;0.166;2023-05-10T16:56:22;9.93;;;1.87;;
76689;SDS011;65623;44.498;0.166;2023-05-10T17:01:54;8.03;;;2.80;;
76689;SDS011;65623;44.498;0.166;2023-05-10T17:07:27;5.73;;;2.17;;
76689;SDS011;65623;44.498;0.166;2023-05-10T17:13:01;12.67;;;1.70;;
76689;SDS011;65623;44.498;0.166;2023-05-10T17:18:33;5.50;;;1.27;;
76689;SDS011;65623;44.498;0.166;2023-05-10T17:24:05;6.77;;;1.97;;
76689;SDS011;65623;44.498;0.166;2023-05-10T17:29:37;7.37;;;2.00;;
76689;SDS011;65623;44.498;0.166;2023-05-10T17:35:10;7.90;;;3.00;;
76689;SDS011;65623;44.498;0.166;2023-05-10T17:40:43;12.67;;;2.13;;
76689;SDS011;65623;44.498;0.166;2023-05-10T17:46:16;7.20;;;1.37;;
76689;SDS011;65623;44.498;0.166;2023-05-10T17:51:49;9.43;;;2.33;;
76689;SDS011;65623;44.498;0.166;2023-05-10T17:57:23;7.63;;;1.60;;
76689;SDS011;65623;44.498;0.166;2023-05-10T18:02:55;10.97;;;2.50;;
76689;SDS011;65623;44.498;0.166;2023-05-10T18:08:27;11.13;;;1.30;;
76689;SDS011;65623;44.498;0.166;2023-05-10T18:13:59;5.40;;;1.00;;
76689;SDS011;65623;44.498;0.166;2023-05-10T18:19:33;7.13;;;1.20;;
76689;SDS011;65623;44.498;0.166;2023-05-10T18:25:06;7.47;;;2.00;;
76689;SDS011;65623;44.498;0.166;2023-05-10T18:30:37;9.73;;;1.50;;
76689;SDS011;65623;44.498;0.166;2023-05-10T18:36:10;10.03;;;3.00;;
76689;SDS011;65623;44.498;0.166;2023-05-10T18:41:43;8.40;;;2.40;;
76689;SDS011;65623;44.498;0.166;2023-05-10T18:47:16;8.13;;;3.10;;
76689;SDS011;65623;44.498;0.166;2023-05-10T18:52:48;8.67;;;2.70;;
76689;SDS011;65623;44.498;0.166;2023-05-10T18:58:21;8.27;;;1.63;;
76689;SDS011;65623;44.498;0.166;2023-05-10T19:03:54;4.07;;;1.53;;
76689;SDS011;65623;44.498;0.166;2023-05-10T19:09:26;8.93;;;1.33;;
76689;SDS011;65623;44.498;0.166;2023-05-10T19:14:58;8.90;;;1.60;;
76689;SDS011;65623;44.498;0.166;2023-05-10T19:20:31;5.33;;;1.80;;
76689;SDS011;65623;44.498;0.166;2023-05-10T19:26:04;6.23;;;1.07;;
76689;SDS011;65623;44.498;0.166;2023-05-10T19:31:36;16.97;;;2.23;;
76689;SDS011;65623;44.498;0.166;2023-05-10T19:37:08;12.17;;;1.63;;
76689;SDS011;65623;44.498;0.166;2023-05-10T19:42:41;9.83;;;2.20;;
76689;SDS011;65623;44.498;0.166;2023-05-10T19:48:15;8.63;;;2.30;;
76689;SDS011;65623;44.498;0.166;2023-05-10T19:53:47;10.57;;;2.33;;
76689;SDS011;65623;44.498;0.166;2023-05-10T19:59:20;7.27;;;2.90;;
76689;SDS011;65623;44.498;0.166;2023-05-10T20:04:53;11.27;;;2.47;;
76689;SDS011;65623;44.498;0.166;2023-05-10T20:10:27;6.80;;;3.53;;
76689;SDS011;65623;44.498;0.166;2023-05-10T20:16:00;8.70;;;2.20;;
76689;SDS011;65623;44.498;0.166;2023-05-10T20:21:32;10.63;;;2.63;;
76689;SDS011;65623;44.498;0.166;2023-05-10T20:27:06;17.27;;;3.67;;
76689;SDS011;65623;44.498;0.166;2023-05-10T20:32:39;6.80;;;2.77;;
76689;SDS011;65623;44.498;0.166;2023-05-10T20:38:11;7.27;;;2.07;;
76689;SDS011;65623;44.498;0.166;2023-05-10T20:43:45;2.23;;;1.00;;
76689;SDS011;65623;44.498;0.166;2023-05-10T20:49:18;11.57;;;2.33;;
76689;SDS011;65623;44.498;0.166;2023-05-10T20:54:51;10.37;;;1.50;;
76689;SDS011;65623;44.498;0.166;2023-05-10T21:00:24;17.50;;;3.03;;
76689;SDS011;65623;44.498;0.166;2023-05-10T21:05:56;11.17;;;2.40;;
76689;SDS011;65623;44.498;0.166;2023-05-10T21:11:28;7.83;;;1.67;;
76689;SDS011;65623;44.498;0.166;2023-05-10T21:17:00;8.17;;;2.00;;
76689;SDS011;65623;44.498;0.166;2023-05-10T21:22:34;10.37;;;3.07;;
76689;SDS011;65623;44.498;0.166;2023-05-10T21:28:06;8.30;;;1.97;;
76689;SDS011;65623;44.498;0.166;2023-05-10T21:33:38;5.33;;;1.77;;
76689;SDS011;65623;44.498;0.166;2023-05-10T21:44:43;10.50;;;2.07;;
76689;SDS011;65623;44.498;0.166;2023-05-10T21:50:16;3.70;;;1.77;;
76689;SDS011;65623;44.498;0.166;2023-05-10T21:55:48;10.27;;;1.87;;
76689;SDS011;65623;44.498;0.166;2023-05-10T22:01:20;8.30;;;1.53;;
76689;SDS011;65623;44.498;0.166;2023-05-10T22:06:54;12.73;;;1.63;;
76689;SDS011;65623;44.498;0.166;2023-05-10T22:12:27;11.87;;;1.73;;
76689;SDS011;65623;44.498;0.166;2023-05-10T22:17:59;5.77;;;1.60;;
76689;SDS011;65623;44.498;0.166;2023-05-10T22:23:31;13.33;;;1.73;;
76689;SDS011;65623;44.498;0.166;2023-05-10T22:29:03;9.67;;;2.33;;
76689;SDS011;65623;44.498;0.166;2023-05-10T22:34:36;5.47;;;1.47;;
76689;SDS011;65623;44.498;0.166;2023-05-10T22:40:08;8.30;;;2.07;;
76689;SDS011;65623;44.498;0.166;2023-05-10T22:45:41;4.67;;;1.70;;
76689;SDS011;65623;44.498;0.166;2023-05-10T22:51:14;8.20;;;1.67;;
76689;SDS011;65623;44.498;0.166;2023-05-10T22:56:47;3.40;;;1.20;;
76689;SDS011;65623;44.498;0.166;2023-05-10T23:02:21;11.37;;;1.90;;
76689;SDS011;65623;44.498;0.166;2023-05-10T23:07:53;18.10;;;2.47;;
76689;SDS011;65623;44.498;0.166;2023-05-10T23:13:26;11.83;;;3.20;;
76689;SDS011;65623;44.498;0.166;2023-05-10T23:19:00;14.40;;;2.83;;
76689;SDS011;65623;44.498;0.166;2023-05-10T23:24:32;7.20;;;2.17;;
76689;SDS011;65623;44.498;0.166;2023-05-10T23:30:05;12.17;;;2.00;;
76689;SDS011;65623;44.498;0.166;2023-05-10T23:35:37;8.13;;;1.43;;
76689;SDS011;65623;44.498;0.166;2023-05-10T23:41:11;13.10;;;2.30;;
76689;SDS011;65623;44.498;0.166;2023-05-10T23:46:44;7.50;;;2.27;;
76689;SDS011;65623;44.498;0.166;2023-05-10T23:52:16;9.13;;;2.23;;
76689;SDS011;65623;44.498;0.166;2023-05-10T23:57:49;7.73;;;2.53;;
